sensor_id;sensor_type;location;lat;lon;timestamp;pressure;altitude;pressure_sealevel;temperature;humidity
78741;BME280;68062;48.726;9.370;2023-05-10T00:01:29;98089.03;;;13.01;100.00
78741;BME280;68062;48.726;9.370;2023-05-10T00:03:56;98082.22;;;12.98;100.00
78741;BME280;68062;48.726;9.370;2023-05-10T00:06:22;98081.06;;;13.12;100.00
78741;BME280;68062;48.726;9.370;2023-05-10T00:08:49;98088.34;;;13.30;100.00
78741;BME280;68062;48.726;9.370;2023-05-10T00:11:16;98083.31;;;13.25;100.00
78741;BME280;68062;48.726;9.370;2023-05-10T00:13:44;98085.28;;;13.16;100.00
78741;BME280;68062;48.726;9.370;2023-05-10T00:16:11;98085.50;;;13.06;100.00
78741;BME280;68062;48.726;9.370;2023-05-10T00:18:38;98086.31;;;13.07;100.00
78741;BME280;68062;48.726;9.370;2023-05-10T00:21:05;98082.28;;;13.33;100.00
78741;BME280;68062;48.726;9.370;2023-05-10T00:23:32;98082.63;;;13.19;100.00
78741;BME280;68062;48.726;9.370;2023-05-10T00:25:58;98091.19;;;13.19;100.00
78741;BME280;68062;48.726;9.370;2023-05-10T00:28:27;98087.66;;;13.25;100.00
78741;BME280;68062;48.726;9.370;2023-05-10T00:30:55;98090.50;;;13.13;100.00
78741;BME280;68062;48.726;9.370;2023-05-10T00:33:21;98083.00;;;13.02;100.00
78741;BME280;68062;48.726;9.370;2023-05-10T00:35:48;98085.69;;;12.97;100.00
78741;BME280;68062;48.726;9.370;2023-05-10T00:38:15;98085.75;;;12.94;100.00
78741;BME280;68062;48.726;9.370;2023-05-10T00:40:42;98094.53;;;12.87;100.00
78741;BME280;68062;48.726;9.370;2023-05-10T00:43:17;98101.50;;;12.82;100.00
78741;BME280;68062;48.726;9.370;2023-05-10T00:45:44;98101.66;;;12.75;100.00
78741;BME280;68062;48.726;9.370;2023-05-10T00:48:12;98108.59;;;12.72;100.00
78741;BME280;68062;48.726;9.370;2023-05-10T00:50:39;98108.66;;;12.69;100.00
78741;BME280;68062;48.726;9.370;2023-05-10T00:53:07;98106.94;;;12.68;100.00
78741;BME280;68062;48.726;9.370;2023-05-10T00:55:34;98114.88;;;12.58;100.00
78741;BME280;68062;48.726;9.370;2023-05-10T00:58:01;98109.00;;;12.51;100.00
78741;BME280;68062;48.726;9.370;2023-05-10T01:00:28;98110.03;;;12.43;100.00
78741;BME280;68062;48.726;9.370;2023-05-10T01:02:55;98117.75;;;12.43;100.00
78741;BME280;68062;48.726;9.370;2023-05-10T01:05:23;98118.81;;;12.34;100.00
78741;BME280;68062;48.726;9.370;2023-05-10T01:07:50;98099.25;;;12.22;100.00
78741;BME280;68062;48.726;9.370;2023-05-10T01:10:17;98124.16;;;12.23;100.00
78741;BME280;68062;48.726;9.370;2023-05-10T01:12:46;98118.16;;;12.21;100.00
78741;BME280;68062;48.726;9.370;2023-05-10T01:15:14;98121.63;;;12.20;100.00
78741;BME280;68062;48.726;9.370;2023-05-10T01:17:45;98115.75;;;12.12;100.00
78741;BME280;68062;48.726;9.370;2023-05-10T01:20:14;98127.72;;;12.17;100.00
78741;BME280;68062;48.726;9.370;2023-05-10T01:23:21;98127.88;;;12.06;100.00
78741;BME280;68062;48.726;9.370;2023-05-10T01:29:11;98131.34;;;12.05;100.00
78741;BME280;68062;48.726;9.370;2023-05-10T01:34:59;98112.19;;;11.70;100.00
78741;BME280;68062;48.726;9.370;2023-05-10T01:37:36;98148.59;;;12.02;100.00
78741;BME280;68062;48.726;9.370;2023-05-10T01:40:10;98146.03;;;12.02;100.00
78741;BME280;68062;48.726;9.370;2023-05-10T01:42:46;98156.28;;;12.03;100.00
78741;BME280;68062;48.726;9.370;2023-05-10T01:45:18;98158.94;;;11.99;100.00
78741;BME280;68062;48.726;9.370;2023-05-10T01:47:50;98160.69;;;11.97;100.00
78741;BME280;68062;48.726;9.370;2023-05-10T01:50:25;98161.50;;;11.97;100.00
78741;BME280;68062;48.726;9.370;2023-05-10T01:52:55;98165.09;;;11.90;100.00
78741;BME280;68062;48.726;9.370;2023-05-10T01:55:25;98167.72;;;11.87;100.00
78741;BME280;68062;48.726;9.370;2023-05-10T01:57:56;98133.81;;;11.60;100.00
78741;BME280;68062;48.726;9.370;2023-05-10T02:00:25;98173.88;;;11.80;100.00
78741;BME280;68062;48.726;9.370;2023-05-10T02:02:52;98182.47;;;11.77;100.00
78741;BME280;68062;48.726;9.370;2023-05-10T02:05:22;98178.28;;;11.71;100.00
78741;BME280;68062;48.726;9.370;2023-05-10T02:07:50;98183.47;;;11.68;100.00
78741;BME280;68062;48.726;9.370;2023-05-10T02:10:18;98182.63;;;11.68;100.00
78741;BME280;68062;48.726;9.370;2023-05-10T02:12:47;98179.16;;;11.69;100.00
78741;BME280;68062;48.726;9.370;2023-05-10T02:15:18;98184.34;;;11.67;100.00
78741;BME280;68062;48.726;9.370;2023-05-10T02:17:46;98189.47;;;11.69;100.00
78741;BME280;68062;48.726;9.370;2023-05-10T02:20:16;98187.88;;;11.61;100.00
78741;BME280;68062;48.726;9.370;2023-05-10T02:22:47;98187.03;;;11.59;100.00
78741;BME280;68062;48.726;9.370;2023-05-10T02:25:17;98189.53;;;11.66;100.00
78741;BME280;68062;48.726;9.370;2023-05-10T02:27:44;98196.41;;;11.63;100.00
78741;BME280;68062;48.726;9.370;2023-05-10T02:30:12;98196.38;;;11.68;100.00
78741;BME280;68062;48.726;9.370;2023-05-10T02:32:41;98202.28;;;11.73;100.00
78741;BME280;68062;48.726;9.370;2023-05-10T02:35:09;98189.28;;;11.83;100.00
78741;BME280;68062;48.726;9.370;2023-05-10T02:37:37;98198.50;;;11.95;100.00
78741;BME280;68062;48.726;9.370;2023-05-10T02:40:07;98201.91;;;11.97;100.00
78741;BME280;68062;48.726;9.370;2023-05-10T02:42:36;98172.94;;;11.82;100.00
78741;BME280;68062;48.726;9.370;2023-05-10T02:45:08;98208.72;;;12.02;100.00
78741;BME280;68062;48.726;9.370;2023-05-10T02:47:37;98202.78;;;11.94;100.00
78741;BME280;68062;48.726;9.370;2023-05-10T02:50:05;98199.34;;;11.95;100.00
78741;BME280;68062;48.726;9.370;2023-05-10T02:52:38;98197.16;;;11.72;100.00
78741;BME280;68062;48.726;9.370;2023-05-10T02:55:09;98194.84;;;11.53;100.00
78741;BME280;68062;48.726;9.370;2023-05-10T02:57:41;98200.69;;;11.66;100.00
78741;BME280;68062;48.726;9.370;2023-05-10T03:00:10;98204.09;;;11.67;100.00
78741;BME280;68062;48.726;9.370;2023-05-10T03:02:37;98211.16;;;11.54;100.00
78741;BME280;68062;48.726;9.370;2023-05-10T03:05:04;98212.97;;;11.48;100.00
78741;BME280;68062;48.726;9.370;2023-05-10T03:07:32;98213.00;;;11.45;100.00
78741;BME280;68062;48.726;9.370;2023-05-10T03:09:59;98209.25;;;11.67;100.00
78741;BME280;68062;48.726;9.370;2023-05-10T03:12:33;98208.09;;;11.86;100.00
78741;BME280;68062;48.726;9.370;2023-05-10T03:15:11;98216.44;;;12.02;100.00
78741;BME280;68062;48.726;9.370;2023-05-10T03:17:47;98214.69;;;12.06;100.00
78741;BME280;68062;48.726;9.370;2023-05-10T03:20:21;98213.75;;;12.09;100.00
78741;BME280;68062;48.726;9.370;2023-05-10T03:22:51;98207.72;;;12.10;100.00
78741;BME280;68062;48.726;9.370;2023-05-10T03:25:20;98214.63;;;12.09;100.00
78741;BME280;68062;48.726;9.370;2023-05-10T03:27:51;98209.72;;;11.92;100.00
78741;BME280;68062;48.726;9.370;2023-05-10T03:30:19;98217.75;;;11.72;100.00
78741;BME280;68062;48.726;9.370;2023-05-10T03:32:46;98210.25;;;11.56;100.00
78741;BME280;68062;48.726;9.370;2023-05-10T03:35:15;98215.41;;;11.56;100.00
78741;BME280;68062;48.726;9.370;2023-05-10T03:37:42;98219.50;;;11.70;100.00
78741;BME280;68062;48.726;9.370;2023-05-10T03:40:10;98232.59;;;11.56;100.00
78741;BME280;68062;48.726;9.370;2023-05-10T03:42:40;98225.69;;;11.58;100.00
78741;BME280;68062;48.726;9.370;2023-05-10T03:45:09;98235.25;;;11.50;100.00
78741;BME280;68062;48.726;9.370;2023-05-10T03:47:35;98230.94;;;11.50;100.00
78741;BME280;68062;48.726;9.370;2023-05-10T03:50:03;98229.84;;;11.67;100.00
78741;BME280;68062;48.726;9.370;2023-05-10T03:52:29;98228.94;;;11.71;100.00
78741;BME280;68062;48.726;9.370;2023-05-10T03:54:57;98229.63;;;11.84;100.00
78741;BME280;68062;48.726;9.370;2023-05-10T03:57:24;98224.31;;;11.91;100.00
78741;BME280;68062;48.726;9.370;2023-05-10T03:59:50;98228.09;;;11.69;100.00
78741;BME280;68062;48.726;9.370;2023-05-10T04:02:18;98232.44;;;11.67;100.00
78741;BME280;68062;48.726;9.370;2023-05-10T04:04:45;98204.03;;;11.71;100.00
78741;BME280;68062;48.726;9.370;2023-05-10T04:07:11;98228.84;;;11.77;100.00
78741;BME280;68062;48.726;9.370;2023-05-10T04:09:39;98229.72;;;11.77;100.00
78741;BME280;68062;48.726;9.370;2023-05-10T04:12:05;98240.88;;;11.76;100.00
78741;BME280;68062;48.726;9.370;2023-05-10T04:14:32;98239.13;;;11.78;100.00
78741;BME280;68062;48.726;9.370;2023-05-10T04:16:59;98234.84;;;11.77;100.00
78741;BME280;68062;48.726;9.370;2023-05-10T04:19:30;98241.38;;;12.02;100.00
78741;BME280;68062;48.726;9.370;2023-05-10T04:21:56;98213.03;;;11.99;100.00
78741;BME280;68062;48.726;9.370;2023-05-10T04:24:23;98220.66;;;12.06;100.00
78741;BME280;68062;48.726;9.370;2023-05-10T04:26:50;98238.72;;;12.06;100.00
78741;BME280;68062;48.726;9.370;2023-05-10T04:29:16;98241.19;;;12.14;100.00
78741;BME280;68062;48.726;9.370;2023-05-10T04:31:43;98237.13;;;11.98;100.00
78741;BME280;68062;48.726;9.370;2023-05-10T04:34:09;98248.28;;;11.97;100.00
78741;BME280;68062;48.726;9.370;2023-05-10T04:36:37;98239.63;;;12.02;100.00
78741;BME280;68062;48.726;9.370;2023-05-10T04:39:04;98249.13;;;11.99;100.00
78741;BME280;68062;48.726;9.370;2023-05-10T04:41:31;98255.03;;;12.05;100.00
78741;BME280;68062;48.726;9.370;2023-05-10T04:43:57;98245.03;;;12.39;100.00
78741;BME280;68062;48.726;9.370;2023-05-10T04:46:24;98245.03;;;12.40;100.00
78741;BME280;68062;48.726;9.370;2023-05-10T04:48:50;98251.34;;;12.22;100.00
78741;BME280;68062;48.726;9.370;2023-05-10T04:51:18;98249.69;;;12.18;100.00
78741;BME280;68062;48.726;9.370;2023-05-10T04:53:47;98246.84;;;12.33;100.00
78741;BME280;68062;48.726;9.370;2023-05-10T04:56:13;98250.97;;;12.44;100.00
78741;BME280;68062;48.726;9.370;2023-05-10T04:58:40;98266.34;;;12.50;100.00
78741;BME280;68062;48.726;9.370;2023-05-10T05:01:07;98258.31;;;12.65;100.00
78741;BME280;68062;48.726;9.370;2023-05-10T05:03:34;98264.97;;;12.79;100.00
78741;BME280;68062;48.726;9.370;2023-05-10T05:06:01;98262.31;;;12.84;100.00
78741;BME280;68062;48.726;9.370;2023-05-10T05:08:28;98252.81;;;12.84;100.00
78741;BME280;68062;48.726;9.370;2023-05-10T05:10:56;98261.31;;;12.89;100.00
78741;BME280;68062;48.726;9.370;2023-05-10T05:13:22;98263.78;;;12.97;100.00
78741;BME280;68062;48.726;9.370;2023-05-10T05:15:49;98262.72;;;13.06;100.00
78741;BME280;68062;48.726;9.370;2023-05-10T05:18:17;98255.78;;;13.09;100.00
78741;BME280;68062;48.726;9.370;2023-05-10T05:20:43;98270.34;;;13.12;100.00
78741;BME280;68062;48.726;9.370;2023-05-10T05:23:10;98263.38;;;13.17;100.00
78741;BME280;68062;48.726;9.370;2023-05-10T05:25:36;98265.00;;;13.23;100.00
78741;BME280;68062;48.726;9.370;2023-05-10T05:28:05;98263.22;;;13.25;100.00
78741;BME280;68062;48.726;9.370;2023-05-10T05:30:31;98271.41;;;13.02;100.00
78741;BME280;68062;48.726;9.370;2023-05-10T05:32:58;98274.91;;;12.99;100.00
78741;BME280;68062;48.726;9.370;2023-05-10T05:35:24;98274.75;;;13.08;100.00
78741;BME280;68062;48.726;9.370;2023-05-10T05:37:51;98274.44;;;13.22;100.00
78741;BME280;68062;48.726;9.370;2023-05-10T05:40:17;98272.69;;;13.24;100.00
78741;BME280;68062;48.726;9.370;2023-05-10T05:42:45;98282.31;;;13.16;100.00
78741;BME280;68062;48.726;9.370;2023-05-10T05:45:13;98280.66;;;13.14;100.00
78741;BME280;68062;48.726;9.370;2023-05-10T05:47:40;98286.88;;;13.03;100.00
78741;BME280;68062;48.726;9.370;2023-05-10T05:50:07;98279.16;;;13.03;100.00
78741;BME280;68062;48.726;9.370;2023-05-10T05:52:34;98280.53;;;13.20;100.00
78741;BME280;68062;48.726;9.370;2023-05-10T05:55:01;98284.38;;;13.44;100.00
78741;BME280;68062;48.726;9.370;2023-05-10T05:57:29;98281.72;;;13.47;100.00
78741;BME280;68062;48.726;9.370;2023-05-10T05:59:56;98288.53;;;13.50;100.00
78741;BME280;68062;48.726;9.370;2023-05-10T06:02:24;98292.00;;;13.49;100.00
78741;BME280;68062;48.726;9.370;2023-05-10T06:04:50;98290.41;;;13.43;100.00
78741;BME280;68062;48.726;9.370;2023-05-10T06:07:17;98296.63;;;13.33;100.00
78741;BME280;68062;48.726;9.370;2023-05-10T06:09:43;98296.84;;;13.22;100.00
78741;BME280;68062;48.726;9.370;2023-05-10T06:12:10;98298.47;;;13.26;100.00
78741;BME280;68062;48.726;9.370;2023-05-10T06:14:37;98302.84;;;13.24;100.00
78741;BME280;68062;48.726;9.370;2023-05-10T06:17:03;98302.50;;;13.39;100.00
78741;BME280;68062;48.726;9.370;2023-05-10T06:19:31;98305.81;;;13.48;100.00
78741;BME280;68062;48.726;9.370;2023-05-10T06:21:58;98306.28;;;13.67;100.00
78741;BME280;68062;48.726;9.370;2023-05-10T06:24:24;98310.06;;;13.50;100.00
78741;BME280;68062;48.726;9.370;2023-05-10T06:26:52;98310.28;;;13.38;100.00
78741;BME280;68062;48.726;9.370;2023-05-10T06:29:18;98306.56;;;13.53;100.00
78741;BME280;68062;48.726;9.370;2023-05-10T06:31:45;98312.00;;;13.81;100.00
78741;BME280;68062;48.726;9.370;2023-05-10T06:34:11;98311.59;;;13.98;100.00
78741;BME280;68062;48.726;9.370;2023-05-10T06:36:40;98319.22;;;14.05;100.00
78741;BME280;68062;48.726;9.370;2023-05-10T06:39:06;98319.28;;;14.02;100.00
78741;BME280;68062;48.726;9.370;2023-05-10T06:41:33;98315.88;;;14.00;100.00
78741;BME280;68062;48.726;9.370;2023-05-10T06:43:59;98311.66;;;13.97;100.00
78741;BME280;68062;48.726;9.370;2023-05-10T06:46:26;98324.44;;;14.03;100.00
78741;BME280;68062;48.726;9.370;2023-05-10T06:48:52;98319.53;;;14.28;100.00
78741;BME280;68062;48.726;9.370;2023-05-10T06:51:19;98327.94;;;14.37;100.00
78741;BME280;68062;48.726;9.370;2023-05-10T06:53:47;98329.38;;;14.12;100.00
78741;BME280;68062;48.726;9.370;2023-05-10T06:56:14;98329.59;;;14.03;100.00
78741;BME280;68062;48.726;9.370;2023-05-10T06:58:41;98334.09;;;13.95;100.00
78741;BME280;68062;48.726;9.370;2023-05-10T07:01:08;98327.22;;;13.94;100.00
78741;BME280;68062;48.726;9.370;2023-05-10T07:03:34;98330.28;;;13.71;100.00
78741;BME280;68062;48.726;9.370;2023-05-10T07:06:01;98336.34;;;13.71;100.00
78741;BME280;68062;48.726;9.370;2023-05-10T07:08:29;98332.13;;;13.65;100.00
78741;BME280;68062;48.726;9.370;2023-05-10T07:11:01;98331.22;;;13.68;100.00
78741;BME280;68062;48.726;9.370;2023-05-10T07:13:29;98326.00;;;13.69;100.00
78741;BME280;68062;48.726;9.370;2023-05-10T07:15:55;98338.94;;;13.69;100.00
78741;BME280;68062;48.726;9.370;2023-05-10T07:18:22;98331.19;;;13.69;100.00
78741;BME280;68062;48.726;9.370;2023-05-10T07:20:49;98327.03;;;13.62;100.00
78741;BME280;68062;48.726;9.370;2023-05-10T07:23:15;98340.69;;;13.69;100.00
78741;BME280;68062;48.726;9.370;2023-05-10T07:25:45;98336.47;;;13.65;100.00
78741;BME280;68062;48.726;9.370;2023-05-10T07:28:13;98339.94;;;13.62;100.00
78741;BME280;68062;48.726;9.370;2023-05-10T07:30:39;98337.22;;;13.70;100.00
78741;BME280;68062;48.726;9.370;2023-05-10T07:33:06;98336.06;;;13.83;100.00
78741;BME280;68062;48.726;9.370;2023-05-10T07:35:33;98340.69;;;14.08;100.00
78741;BME280;68062;48.726;9.370;2023-05-10T07:38:00;98333.59;;;14.17;100.00
78741;BME280;68062;48.726;9.370;2023-05-10T07:40:27;98343.22;;;14.48;100.00
78741;BME280;68062;48.726;9.370;2023-05-10T07:42:54;98323.38;;;14.83;100.00
78741;BME280;68062;48.726;9.370;2023-05-10T07:45:23;98319.28;;;15.07;100.00
78741;BME280;68062;48.726;9.370;2023-05-10T07:47:50;98333.81;;;15.44;100.00
78741;BME280;68062;48.726;9.370;2023-05-10T07:50:16;98341.78;;;15.67;100.00
78741;BME280;68062;48.726;9.370;2023-05-10T07:52:43;98336.91;;;15.87;99.84
78741;BME280;68062;48.726;9.370;2023-05-10T07:55:10;98338.22;;;15.71;99.27
78741;BME280;68062;48.726;9.370;2023-05-10T07:57:37;98338.34;;;15.96;99.20
78741;BME280;68062;48.726;9.370;2023-05-10T08:00:05;98343.28;;;15.76;94.70
78741;BME280;68062;48.726;9.370;2023-05-10T08:02:40;98335.69;;;15.69;96.36
78741;BME280;68062;48.726;9.370;2023-05-10T08:05:07;98338.94;;;15.46;97.13
78741;BME280;68062;48.726;9.370;2023-05-10T08:07:34;98335.75;;;15.36;100.00
78741;BME280;68062;48.726;9.370;2023-05-10T08:10:01;98322.91;;;15.33;100.00
78741;BME280;68062;48.726;9.370;2023-05-10T08:12:28;98346.22;;;15.33;100.00
78741;BME280;68062;48.726;9.370;2023-05-10T08:14:54;98347.22;;;15.27;99.26
78741;BME280;68062;48.726;9.370;2023-05-10T08:17:21;98342.44;;;15.12;98.62
78741;BME280;68062;48.726;9.370;2023-05-10T08:19:49;98341.69;;;15.08;100.00
78741;BME280;68062;48.726;9.370;2023-05-10T08:22:15;98349.38;;;14.78;99.35
78741;BME280;68062;48.726;9.370;2023-05-10T08:24:42;98345.31;;;14.66;100.00
78741;BME280;68062;48.726;9.370;2023-05-10T08:27:09;98344.59;;;14.61;100.00
78741;BME280;68062;48.726;9.370;2023-05-10T08:29:37;98341.09;;;14.64;100.00
78741;BME280;68062;48.726;9.370;2023-05-10T08:32:04;98348.78;;;14.67;100.00
78741;BME280;68062;48.726;9.370;2023-05-10T08:34:30;98344.84;;;14.86;100.00
78741;BME280;68062;48.726;9.370;2023-05-10T08:36:58;98343.97;;;14.88;99.37
78741;BME280;68062;48.726;9.370;2023-05-10T08:43:13;98341.75;;;15.38;98.42
78741;BME280;68062;48.726;9.370;2023-05-10T08:45:43;98342.06;;;15.57;94.67
78741;BME280;68062;48.726;9.370;2023-05-10T08:52:02;98346.59;;;15.51;96.13
78741;BME280;68062;48.726;9.370;2023-05-10T08:54:29;98348.38;;;15.79;93.63
78741;BME280;68062;48.726;9.370;2023-05-10T08:57:16;98348.00;;;15.91;94.34
78741;BME280;68062;48.726;9.370;2023-05-10T08:59:43;98356.34;;;16.29;89.79
78741;BME280;68062;48.726;9.370;2023-05-10T09:02:10;98363.31;;;16.29;88.25
78741;BME280;68062;48.726;9.370;2023-05-10T09:04:37;98353.81;;;16.28;84.90
78741;BME280;68062;48.726;9.370;2023-05-10T09:07:06;98359.72;;;16.33;86.49
78741;BME280;68062;48.726;9.370;2023-05-10T09:09:33;98357.59;;;16.17;86.90
78741;BME280;68062;48.726;9.370;2023-05-10T09:12:00;98356.81;;;15.85;83.91
78741;BME280;68062;48.726;9.370;2023-05-10T09:14:26;98363.25;;;15.72;82.92
78741;BME280;68062;48.726;9.370;2023-05-10T09:16:53;98360.84;;;15.96;83.24
78741;BME280;68062;48.726;9.370;2023-05-10T09:19:20;98367.16;;;15.85;83.76
78741;BME280;68062;48.726;9.370;2023-05-10T09:21:46;98363.41;;;16.26;84.76
78741;BME280;68062;48.726;9.370;2023-05-10T09:24:17;98371.53;;;15.85;88.38
78741;BME280;68062;48.726;9.370;2023-05-10T09:26:48;98365.94;;;15.99;91.04
78741;BME280;68062;48.726;9.370;2023-05-10T09:29:15;98364.78;;;16.08;83.27
78741;BME280;68062;48.726;9.370;2023-05-10T09:31:46;98360.63;;;15.42;82.88
78741;BME280;68062;48.726;9.370;2023-05-10T09:34:17;98369.06;;;15.19;87.86
78741;BME280;68062;48.726;9.370;2023-05-10T09:36:51;98373.38;;;15.18;90.20
78741;BME280;68062;48.726;9.370;2023-05-10T09:39:19;98379.81;;;15.03;92.50
78741;BME280;68062;48.726;9.370;2023-05-10T09:41:46;98373.75;;;14.68;93.09
78741;BME280;68062;48.726;9.370;2023-05-10T09:44:16;98379.72;;;14.35;94.91
78741;BME280;68062;48.726;9.370;2023-05-10T09:46:49;98377.13;;;14.35;100.00
78741;BME280;68062;48.726;9.370;2023-05-10T09:49:16;98375.84;;;14.53;100.00
78741;BME280;68062;48.726;9.370;2023-05-10T09:51:42;98372.03;;;14.70;100.00
78741;BME280;68062;48.726;9.370;2023-05-10T09:54:10;98379.78;;;14.68;100.00
78741;BME280;68062;48.726;9.370;2023-05-10T09:56:39;98347.69;;;14.41;100.00
78741;BME280;68062;48.726;9.370;2023-05-10T09:59:07;98389.19;;;13.97;100.00
78741;BME280;68062;48.726;9.370;2023-05-10T10:01:34;98393.78;;;13.38;100.00
78741;BME280;68062;48.726;9.370;2023-05-10T10:04:03;98364.03;;;13.19;100.00
78741;BME280;68062;48.726;9.370;2023-05-10T10:13:45;98394.88;;;14.13;100.00
78741;BME280;68062;48.726;9.370;2023-05-10T10:19:59;98375.25;;;15.44;89.24
78741;BME280;68062;48.726;9.370;2023-05-10T10:22:36;98349.38;;;15.73;85.22
78741;BME280;68062;48.726;9.370;2023-05-10T10:29:00;98372.69;;;18.31;76.04
78741;BME280;68062;48.726;9.370;2023-05-10T10:31:34;98373.19;;;17.47;74.54
78741;BME280;68062;48.726;9.370;2023-05-10T10:34:05;98370.75;;;17.90;70.96
78741;BME280;68062;48.726;9.370;2023-05-10T10:36:33;98366.06;;;17.76;75.57
78741;BME280;68062;48.726;9.370;2023-05-10T10:39:09;98368.88;;;18.18;69.87
78741;BME280;68062;48.726;9.370;2023-05-10T10:41:38;98370.66;;;17.70;73.44
78741;BME280;68062;48.726;9.370;2023-05-10T10:44:33;98363.50;;;17.03;73.28
78741;BME280;68062;48.726;9.370;2023-05-10T10:47:05;98356.09;;;17.16;74.28
78741;BME280;68062;48.726;9.370;2023-05-10T10:49:42;98351.53;;;17.71;75.38
78741;BME280;68062;48.726;9.370;2023-05-10T10:52:22;98352.28;;;17.97;70.65
78741;BME280;68062;48.726;9.370;2023-05-10T10:54:52;98370.03;;;17.39;79.70
78741;BME280;68062;48.726;9.370;2023-05-10T10:57:21;98373.88;;;16.50;78.20
78741;BME280;68062;48.726;9.370;2023-05-10T10:59:49;98358.22;;;15.66;83.30
78741;BME280;68062;48.726;9.370;2023-05-10T11:02:42;98370.91;;;15.45;80.07
78741;BME280;68062;48.726;9.370;2023-05-10T11:05:33;98365.63;;;15.50;80.73
78741;BME280;68062;48.726;9.370;2023-05-10T11:08:07;98361.81;;;15.62;83.28
78741;BME280;68062;48.726;9.370;2023-05-10T11:10:34;98361.50;;;16.02;81.03
78741;BME280;68062;48.726;9.370;2023-05-10T11:13:01;98360.94;;;16.48;80.94
78741;BME280;68062;48.726;9.370;2023-05-10T11:15:30;98348.63;;;15.99;79.63
78741;BME280;68062;48.726;9.370;2023-05-10T11:17:57;98368.34;;;16.60;79.09
78741;BME280;68062;48.726;9.370;2023-05-10T11:20:27;98365.78;;;16.32;80.38
78741;BME280;68062;48.726;9.370;2023-05-10T11:23:11;98371.28;;;15.63;83.19
78741;BME280;68062;48.726;9.370;2023-05-10T11:25:42;98377.88;;;15.43;82.99
78741;BME280;68062;48.726;9.370;2023-05-10T11:28:11;98377.19;;;14.70;81.16
78741;BME280;68062;48.726;9.370;2023-05-10T11:30:40;98384.63;;;14.48;80.16
78741;BME280;68062;48.726;9.370;2023-05-10T11:33:07;98396.41;;;14.22;80.37
78741;BME280;68062;48.726;9.370;2023-05-10T11:35:38;98396.19;;;13.92;78.61
78741;BME280;68062;48.726;9.370;2023-05-10T11:38:06;98406.59;;;13.89;80.73
78741;BME280;68062;48.726;9.370;2023-05-10T11:40:32;98372.81;;;13.56;79.25
78741;BME280;68062;48.726;9.370;2023-05-10T11:42:59;98407.16;;;13.61;79.67
78741;BME280;68062;48.726;9.370;2023-05-10T11:45:26;98417.50;;;13.61;78.47
78741;BME280;68062;48.726;9.370;2023-05-10T11:47:55;98415.69;;;13.64;77.33
78741;BME280;68062;48.726;9.370;2023-05-10T11:50:23;98410.81;;;13.50;78.96
78741;BME280;68062;48.726;9.370;2023-05-10T11:52:51;98415.94;;;13.52;79.25
78741;BME280;68062;48.726;9.370;2023-05-10T11:55:17;98416.63;;;13.62;78.25
78741;BME280;68062;48.726;9.370;2023-05-10T11:57:44;98430.25;;;13.68;78.54
78741;BME280;68062;48.726;9.370;2023-05-10T12:00:12;98412.38;;;13.58;78.73
78741;BME280;68062;48.726;9.370;2023-05-10T12:02:41;98423.00;;;13.88;80.62
78741;BME280;68062;48.726;9.370;2023-05-10T12:05:09;98434.34;;;14.21;79.19
78741;BME280;68062;48.726;9.370;2023-05-10T12:07:37;98437.44;;;13.96;77.22
78741;BME280;68062;48.726;9.370;2023-05-10T12:10:05;98445.16;;;13.56;84.11
78741;BME280;68062;48.726;9.370;2023-05-10T12:12:42;98457.41;;;13.44;84.83
78741;BME280;68062;48.726;9.370;2023-05-10T12:15:17;98460.53;;;13.62;86.21
78741;BME280;68062;48.726;9.370;2023-05-10T12:17:44;98438.91;;;13.19;89.45
78741;BME280;68062;48.726;9.370;2023-05-10T12:20:17;98457.16;;;13.08;97.76
78741;BME280;68062;48.726;9.370;2023-05-10T12:22:46;98466.03;;;12.91;93.89
78741;BME280;68062;48.726;9.370;2023-05-10T12:29:13;98472.84;;;12.97;96.10
78741;BME280;68062;48.726;9.370;2023-05-10T12:31:55;98465.69;;;13.13;100.00
78741;BME280;68062;48.726;9.370;2023-05-10T12:34:25;98475.91;;;13.19;99.46
78741;BME280;68062;48.726;9.370;2023-05-10T12:36:56;98474.63;;;13.45;100.00
78741;BME280;68062;48.726;9.370;2023-05-10T12:39:24;98463.72;;;13.75;100.00
78741;BME280;68062;48.726;9.370;2023-05-10T12:41:51;98470.47;;;14.26;97.94
78741;BME280;68062;48.726;9.370;2023-05-10T12:44:18;98473.13;;;14.61;91.75
78741;BME280;68062;48.726;9.370;2023-05-10T12:46:45;98470.25;;;14.75;93.05
78741;BME280;68062;48.726;9.370;2023-05-10T12:49:12;98462.00;;;15.29;89.48
78741;BME280;68062;48.726;9.370;2023-05-10T12:51:39;98467.50;;;15.50;85.69
78741;BME280;68062;48.726;9.370;2023-05-10T12:54:07;98463.53;;;15.37;85.53
78741;BME280;68062;48.726;9.370;2023-05-10T12:56:34;98465.50;;;14.54;89.72
78741;BME280;68062;48.726;9.370;2023-05-10T12:59:00;98472.28;;;14.21;93.10
78741;BME280;68062;48.726;9.370;2023-05-10T13:01:28;98463.81;;;14.14;96.45
78741;BME280;68062;48.726;9.370;2023-05-10T13:03:54;98467.25;;;14.13;96.14
78741;BME280;68062;48.726;9.370;2023-05-10T13:06:21;98463.03;;;14.09;99.09
78741;BME280;68062;48.726;9.370;2023-05-10T13:08:48;98464.63;;;14.16;99.02
78741;BME280;68062;48.726;9.370;2023-05-10T13:11:15;98465.84;;;14.39;100.00
78741;BME280;68062;48.726;9.370;2023-05-10T13:13:42;98462.59;;;14.31;96.94
78741;BME280;68062;48.726;9.370;2023-05-10T13:16:09;98472.44;;;14.13;96.29
78741;BME280;68062;48.726;9.370;2023-05-10T13:18:36;98467.44;;;14.05;99.81
78741;BME280;68062;48.726;9.370;2023-05-10T13:21:02;98467.78;;;13.88;100.00
78741;BME280;68062;48.726;9.370;2023-05-10T13:23:31;98470.19;;;13.52;100.00
78741;BME280;68062;48.726;9.370;2023-05-10T13:25:57;98465.59;;;13.68;100.00
78741;BME280;68062;48.726;9.370;2023-05-10T13:32:12;98449.22;;;14.11;100.00
78741;BME280;68062;48.726;9.370;2023-05-10T13:34:38;98448.66;;;14.76;96.86
78741;BME280;68062;48.726;9.370;2023-05-10T13:37:05;98444.97;;;15.21;93.14